createdAt,value
2023-05-02T00:00:47.050Z,13.16
2023-05-02T00:05:48.823Z,13.15
2023-05-02T00:10:50.541Z,13.11
2023-05-02T00:15:52.152Z,13.10
2023-05-02T00:20:53.782Z,13.10
2023-05-02T00:25:55.503Z,13.10
2023-05-02T00:30:57.157Z,13.12
2023-05-02T00:35:58.810Z,13.13
2023-05-02T00:41:00.539Z,13.20
2023-05-02T00:46:02.517Z,13.16
2023-05-02T00:51:08.708Z,13.12
2023-05-02T00:56:10.438Z,13.26
2023-05-02T01:01:30.497Z,13.25
2023-05-02T01:07:13.796Z,13.23
2023-05-02T01:12:29.106Z,13.33
2023-05-02T01:17:33.056Z,13.23
2023-05-02T01:22:38.032Z,13.12
2023-05-02T01:28:14.279Z,13.10
2023-05-02T01:33:17.744Z,13.07
2023-05-02T01:38:21.084Z,13.12
2023-05-02T01:43:26.333Z,13.12
2023-05-02T01:48:28.898Z,13.19
2023-05-02T01:53:34.262Z,13.19
2023-05-02T01:58:38.497Z,13.14
2023-05-02T02:03:40.412Z,13.13
2023-05-02T02:08:42.371Z,13.07
2023-05-02T02:13:51.048Z,13.12
2023-05-02T02:18:56.518Z,13.14
2023-05-02T02:24:03.120Z,13.01
2023-05-02T02:29:05.120Z,13.05
2023-05-02T02:34:07.464Z,13.19
2023-05-02T02:39:46.600Z,13.08
2023-05-02T02:44:56.951Z,13.14
2023-05-02T02:50:22.675Z,13.04
2023-05-02T02:55:36.758Z,13.15
2023-05-02T03:00:39.521Z,13.29
2023-05-02T03:05:43.789Z,13.26
2023-05-02T03:10:45.663Z,13.32
2023-05-02T03:15:58.806Z,13.39
2023-05-02T03:21:04.059Z,13.36
2023-05-02T03:26:06.263Z,13.21
2023-05-02T03:31:09.433Z,13.11
2023-05-02T03:36:14.938Z,13.05
2023-05-02T03:41:17.477Z,12.98
2023-05-02T03:46:19.750Z,12.88
2023-05-02T03:51:21.527Z,12.78
2023-05-02T03:56:26.727Z,12.71
2023-05-02T04:02:03.581Z,12.68
2023-05-02T04:07:18.397Z,12.63
2023-05-02T04:12:23.989Z,12.71
2023-05-02T04:17:27.493Z,12.59
2023-05-02T04:22:29.220Z,12.60
2023-05-02T04:27:34.986Z,12.59
2023-05-02T04:32:38.058Z,12.64
2023-05-02T04:37:40.659Z,12.77
2023-05-02T04:42:42.748Z,12.61
2023-05-02T04:47:49.433Z,12.59
2023-05-02T04:52:51.230Z,12.71
2023-05-02T04:57:53.022Z,12.72
2023-05-02T05:02:55.402Z,12.84
2023-05-02T05:07:57.176Z,12.65
2023-05-02T05:13:00.676Z,13.06
2023-05-02T05:18:03.175Z,12.73
2023-05-02T05:23:04.936Z,12.68
2023-05-02T05:28:06.677Z,13.09
2023-05-02T05:33:11.015Z,13.00
2023-05-02T05:38:13.109Z,13.01
2023-05-02T05:43:17.723Z,13.01
2023-05-02T05:48:20.122Z,13.32
2023-05-02T05:53:21.973Z,13.32
2023-05-02T05:58:24.894Z,13.02
2023-05-02T06:03:30.120Z,13.24
2023-05-02T06:08:32.080Z,13.84
2023-05-02T06:13:33.822Z,14.66
2023-05-02T06:18:35.846Z,13.99
2023-05-02T06:23:40.234Z,14.27
2023-05-02T06:28:42.050Z,14.80
2023-05-02T06:33:43.759Z,15.19
2023-05-02T06:38:45.384Z,14.97
2023-05-02T06:43:47.014Z,14.85
2023-05-02T06:48:48.866Z,15.02
2023-05-02T06:53:51.054Z,14.12
2023-05-02T06:58:52.717Z,14.30
2023-05-02T07:03:54.560Z,14.35
2023-05-02T07:08:56.214Z,14.75
2023-05-02T07:13:57.962Z,14.19
2023-05-02T07:19:00.223Z,14.32
2023-05-02T07:24:01.890Z,14.35
2023-05-02T07:29:03.552Z,14.08
2023-05-02T07:34:05.191Z,14.20
2023-05-02T07:39:06.892Z,13.81
2023-05-02T07:44:08.938Z,14.15
2023-05-02T07:49:10.735Z,15.54
2023-05-02T07:54:22.077Z,16.98
2023-05-02T07:59:23.702Z,17.68
2023-05-02T08:04:26.116Z,16.39
2023-05-02T08:09:27.833Z,16.08
2023-05-02T08:14:29.518Z,17.95
2023-05-02T08:19:32.015Z,21.04
2023-05-02T08:24:36.865Z,21.68
2023-05-02T08:29:38.556Z,20.65
2023-05-02T08:34:40.487Z,17.49
2023-05-02T08:39:42.259Z,15.98
2023-05-02T08:44:43.876Z,15.77
2023-05-02T08:49:46.573Z,15.82
2023-05-02T08:54:51.588Z,17.26
2023-05-02T08:59:53.282Z,17.22
2023-05-02T09:04:59.881Z,16.46
2023-05-02T09:10:02.117Z,16.34
2023-05-02T09:15:29.858Z,16.12
2023-05-02T09:20:40.682Z,17.21
2023-05-02T09:25:42.463Z,16.87
2023-05-02T09:30:44.159Z,18.06
2023-05-02T09:35:55.882Z,18.29
2023-05-02T09:40:57.650Z,17.32
2023-05-02T09:46:01.897Z,17.60
2023-05-02T09:51:04.867Z,17.90
2023-05-02T09:56:06.967Z,17.29
2023-05-02T10:01:14.928Z,16.82
2023-05-02T10:06:19.229Z,17.11
2023-05-02T10:11:21.878Z,16.65
2023-05-02T10:16:29.122Z,15.87
2023-05-02T10:21:32.532Z,17.02
2023-05-02T10:26:35.431Z,18.57
2023-05-02T10:31:39.802Z,19.10
2023-05-02T10:36:41.556Z,16.82
2023-05-02T10:41:44.323Z,16.87
2023-05-02T10:46:46.060Z,16.72
2023-05-02T10:51:47.811Z,16.35
2023-05-02T10:57:05.600Z,16.65
2023-05-02T11:02:27.979Z,17.22
2023-05-02T11:07:34.521Z,16.61
2023-05-02T11:12:49.179Z,16.61
2023-05-02T11:18:03.963Z,18.73
2023-05-02T11:23:21.784Z,18.33
2023-05-02T11:28:40.329Z,18.00
2023-05-02T11:33:41.939Z,19.36
2023-05-02T11:38:44.492Z,20.60
2023-05-02T11:43:47.141Z,21.38
2023-05-02T11:48:48.839Z,18.93
2023-05-02T11:53:50.678Z,17.93
2023-05-02T11:59:03.501Z,18.34
2023-05-02T12:04:07.606Z,20.49
2023-05-02T12:09:16.203Z,20.76
2023-05-02T12:14:17.905Z,18.85
2023-05-02T12:19:19.664Z,19.87
2023-05-02T12:24:21.543Z,21.64
2023-05-02T12:29:37.839Z,20.27
2023-05-02T12:34:40.150Z,19.62
2023-05-02T12:39:43.061Z,20.02
2023-05-02T12:44:46.593Z,19.09
2023-05-02T12:49:52.776Z,17.64
2023-05-02T12:54:54.426Z,18.56
2023-05-02T12:59:56.132Z,18.21
2023-05-02T13:04:57.763Z,19.73
2023-05-02T13:09:59.506Z,19.57
2023-05-02T13:15:01.316Z,19.32
2023-05-02T13:20:03.656Z,18.98
2023-05-02T13:25:07.097Z,18.24
2023-05-02T13:30:10.207Z,19.08
2023-05-02T13:35:14.114Z,18.69
2023-05-02T13:40:15.860Z,18.31
2023-05-02T13:45:17.933Z,18.36
2023-05-02T13:50:19.563Z,18.47
2023-05-02T13:55:21.257Z,18.44
2023-05-02T14:00:23.034Z,17.60
2023-05-02T14:05:24.624Z,17.42
2023-05-02T14:10:26.288Z,17.49
2023-05-02T14:15:28.169Z,18.29
2023-05-02T14:20:29.836Z,19.27
2023-05-02T14:25:31.445Z,18.29
2023-05-02T14:30:33.301Z,18.06
2023-05-02T14:35:34.932Z,18.06
2023-05-02T14:40:36.782Z,17.58
2023-05-02T14:45:38.410Z,16.76
2023-05-02T14:50:40.998Z,16.74
2023-05-02T14:55:42.709Z,15.51
2023-05-02T15:00:44.317Z,14.88
2023-05-02T15:05:46.133Z,14.48
2023-05-02T15:10:47.784Z,14.30
2023-05-02T15:15:49.549Z,14.24
2023-05-02T15:20:51.208Z,14.24
2023-05-02T15:25:52.823Z,14.42
2023-05-02T15:30:54.489Z,14.81
2023-05-02T15:36:00.706Z,15.20
2023-05-02T15:41:02.374Z,15.22
2023-05-02T15:46:04.091Z,15.12
2023-05-02T15:51:06.361Z,15.12
2023-05-02T15:56:12.163Z,14.93
2023-05-02T16:01:13.788Z,14.73
2023-05-02T16:06:16.636Z,14.27
2023-05-02T16:11:18.296Z,14.27
2023-05-02T16:16:19.973Z,14.17
2023-05-02T16:21:21.734Z,14.18
2023-05-02T16:26:23.410Z,14.10
2023-05-02T16:31:25.164Z,14.20
2023-05-02T16:36:27.899Z,14.15
2023-05-02T16:41:29.529Z,14.07
2023-05-02T16:46:31.676Z,13.85
2023-05-02T16:51:33.454Z,13.68
2023-05-02T16:56:35.063Z,13.50
2023-05-02T17:01:36.821Z,13.51
2023-05-02T17:06:39.192Z,13.59
2023-05-02T17:11:41.388Z,13.62
2023-05-02T17:16:43.101Z,13.51
2023-05-02T17:21:44.768Z,13.40
2023-05-02T17:26:46.580Z,13.27
2023-05-02T17:31:48.273Z,13.45
2023-05-02T17:36:49.883Z,13.38
2023-05-02T17:41:51.491Z,13.43
2023-05-02T17:46:53.522Z,13.46
2023-05-02T17:51:55.286Z,13.26
2023-05-02T17:56:57.357Z,13.32
2023-05-02T18:01:58.997Z,13.35
2023-05-02T18:07:02.511Z,13.19
2023-05-02T18:12:06.214Z,13.12
2023-05-02T18:17:09.885Z,12.96
2023-05-02T18:22:11.882Z,12.91
2023-05-02T18:27:13.562Z,12.97
2023-05-02T18:32:15.602Z,12.73
2023-05-02T18:37:17.206Z,12.74
2023-05-02T18:42:18.840Z,12.61
2023-05-02T18:47:21.507Z,12.58
2023-05-02T18:52:23.135Z,12.60
2023-05-02T18:57:25.362Z,12.46
2023-05-02T19:02:27.411Z,12.44
2023-05-02T19:07:29.101Z,12.47
2023-05-02T19:12:31.038Z,12.37
2023-05-02T19:17:32.702Z,12.22
2023-05-02T19:22:34.776Z,12.11
2023-05-02T19:27:36.592Z,12.09
2023-05-02T19:32:38.276Z,12.02
2023-05-02T19:37:39.878Z,11.95
2023-05-02T19:42:41.525Z,11.64
2023-05-02T19:47:45.452Z,11.62
2023-05-02T19:52:47.247Z,11.45
2023-05-02T19:57:49.030Z,11.31
2023-05-02T20:02:51.586Z,11.21
2023-05-02T20:07:53.409Z,11.32
2023-05-02T20:12:55.019Z,11.26
2023-05-02T20:17:59.307Z,11.47
2023-05-02T20:23:00.962Z,11.51
2023-05-02T20:28:02.575Z,11.39
2023-05-02T20:33:14.009Z,11.42
2023-05-02T20:38:17.808Z,11.34
2023-05-02T20:43:19.944Z,11.14
2023-05-02T20:48:21.658Z,11.03
2023-05-02T20:53:24.001Z,11.00
2023-05-02T20:58:26.311Z,11.34
2023-05-02T21:03:28.116Z,11.08
2023-05-02T21:08:29.910Z,11.00
2023-05-02T21:13:31.537Z,11.07
2023-05-02T21:18:33.183Z,10.87
2023-05-02T21:23:35.004Z,10.92
2023-05-02T21:28:38.568Z,10.64
2023-05-02T21:33:41.573Z,10.85
2023-05-02T21:38:43.188Z,10.57
2023-05-02T21:43:45.202Z,10.66
2023-05-02T21:48:46.875Z,10.89
2023-05-02T21:53:48.623Z,10.94
2023-05-02T21:58:51.383Z,10.86
2023-05-02T22:03:53.049Z,10.69
2023-05-02T22:08:54.689Z,10.72
2023-05-02T22:13:56.428Z,10.75
2023-05-02T22:18:58.157Z,10.84
2023-05-02T22:23:59.782Z,10.84
2023-05-02T22:29:01.400Z,10.68
2023-05-02T22:34:03.018Z,10.75
2023-05-02T22:39:08.982Z,10.81
2023-05-02T22:44:11.103Z,10.86
2023-05-02T22:49:12.728Z,10.59
2023-05-02T22:54:15.226Z,10.64
2023-05-02T22:59:17.665Z,10.63
2023-05-02T23:04:19.357Z,10.46
2023-05-02T23:09:21.216Z,10.51
2023-05-02T23:14:23.480Z,10.61
2023-05-02T23:19:25.934Z,10.36
2023-05-02T23:24:27.844Z,10.50
2023-05-02T23:29:29.490Z,10.36
2023-05-02T23:34:31.473Z,10.22
2023-05-02T23:39:33.532Z,10.33
2023-05-02T23:44:35.170Z,10.45
2023-05-02T23:49:37.232Z,10.35
2023-05-02T23:54:38.853Z,10.51
2023-05-02T23:59:40.502Z,10.52
